Time;durP1;ratioP1;P1;durP2;ratioP2;P2;SDS_P1;SDS_P2;PMS_P1;PMS_P2;Temp;Humidity;BMP_temperature;BMP_pressure;BME280_temperature;BME280_humidity;BME280_pressure;Samples;Min_cycle;Max_cycle;Signal;HPM_P1;HPM_P2
2022/10/28 00:00:22;;;;;;;33.78;17.85;;;;;;;16.32;60.07;101080.72;4498963;31;20138;-94
2022/10/28 00:02:47;;;;;;;32.47;17.70;;;;;;;16.28;60.07;101082.59;4464609;31;20414;-95
2022/10/28 00:05:13;;;;;;;33.80;16.65;;;;;;;16.27;60.07;101076.47;4463988;31;20112;-94
2022/10/28 00:07:38;;;;;;;38.38;19.55;;;;;;;16.16;60.07;101083.88;4461411;32;20164;-94
2022/10/28 00:10:04;;;;;;;33.40;17.33;;;;;;;16.11;60.06;101079.72;4469400;31;20392;-96
2022/10/28 00:12:29;;;;;;;29.40;16.80;;;;;;;16.24;60.06;101081.00;4467592;31;20092;-95
2022/10/28 00:14:55;;;;;;;32.85;16.60;;;;;;;16.24;60.06;101086.25;4464713;32;20112;-94
2022/10/28 00:17:20;;;;;;;33.03;17.40;;;;;;;16.24;60.07;101079.22;4469821;32;20112;-94
2022/10/28 00:19:46;;;;;;;33.38;17.37;;;;;;;16.31;60.06;101079.00;4471801;31;23325;-95
2022/10/28 00:22:11;;;;;;;34.17;16.90;;;;;;;16.37;60.07;101077.03;4471337;32;20132;-94
2022/10/28 00:24:37;;;;;;;35.92;18.08;;;;;;;16.28;60.06;101083.44;4461277;32;20381;-94
2022/10/28 00:27:45;;;;;;;34.75;18.25;;;;;;;16.21;60.06;101081.09;4477159;31;20149;-96
2022/10/28 00:31:32;;;;;;;28.42;17.37;;;;;;;16.28;60.07;101078.19;4487175;31;20113;-96
2022/10/28 00:33:39;;;;;;;34.65;18.10;;;;;;;16.23;60.06;101079.28;4509071;31;20104;-96
2022/10/28 00:36:08;;;;;;;36.55;19.05;;;;;;;16.21;60.07;101084.59;4477054;31;20143;-96
2022/10/28 00:38:33;;;;;;;33.83;16.40;;;;;;;16.28;60.07;101075.56;4490370;31;20112;-95
2022/10/28 00:40:59;;;;;;;32.60;17.48;;;;;;;16.19;60.07;101077.66;4472469;32;20112;-95
2022/10/28 00:43:39;;;;;;;34.80;18.40;;;;;;;16.21;60.07;101079.31;4498192;31;20135;-95
2022/10/28 00:46:10;;;;;;;39.35;17.67;;;;;;;16.32;60.07;101083.34;4472645;32;20135;-96
2022/10/28 00:48:40;;;;;;;34.17;18.30;;;;;;;16.31;60.07;101081.63;4468152;32;20226;-96
2022/10/28 00:51:05;;;;;;;;;;;;;;;16.29;60.06;101081.69;4474766;32;20081;-96
2022/10/28 00:53:31;;;;;;;32.65;16.80;;;;;;;16.31;60.08;101079.84;4480194;32;20017;-95
2022/10/28 00:55:56;;;;;;;38.53;18.27;;;;;;;16.24;60.07;101079.22;4476262;31;20093;-94
2022/10/28 00:58:22;;;;;;;30.23;17.12;;;;;;;16.27;60.07;101080.87;4469773;32;20100;-95
2022/10/28 01:00:47;;;;;;;34.08;17.70;;;;;;;16.31;60.07;101079.00;4474514;31;20104;-95
2022/10/28 01:03:13;;;;;;;30.88;17.58;;;;;;;16.27;60.07;101078.25;4473874;31;20148;-95
2022/10/28 01:05:41;;;;;;;42.58;18.55;;;;;;;16.33;60.08;101070.19;4463549;31;20100;-94
2022/10/28 01:08:06;;;;;;;38.95;17.23;;;;;;;16.30;60.06;101069.41;4464915;31;20468;-95
2022/10/28 01:11:03;;;;;;;37.65;18.05;;;;;;;16.41;60.07;101065.50;4467844;32;20091;-93
2022/10/28 01:13:53;;;;;;;35.60;17.73;;;;;;;16.46;60.08;101070.59;4479338;31;20092;-95
2022/10/28 01:16:28;;;;;;;36.63;18.08;;;;;;;16.31;60.08;101074.59;4490655;31;20105;-95
2022/10/28 01:19:15;;;;;;;36.35;17.75;;;;;;;16.32;60.08;101070.19;4493842;31;20113;-96
2022/10/28 01:22:04;;;;;;;37.10;17.67;;;;;;;16.40;60.08;101069.03;4491398;31;21100;-95
2022/10/28 01:24:35;;;;;;;41.72;18.20;;;;;;;16.19;60.07;101060.13;4470792;31;20122;-95
2022/10/28 01:27:03;;;;;;;37.45;17.45;;;;;;;16.16;60.06;101068.13;4486223;32;20687;-95
2022/10/28 01:29:39;;;;;;;32.65;17.52;;;;;;;16.32;60.08;101062.31;4496104;31;20104;-95
2022/10/28 01:32:21;;;;;;;35.97;17.12;;;;;;;16.16;60.06;101062.00;4489412;31;20130;-95
2022/10/28 01:35:08;;;;;;;35.22;17.50;;;;;;;16.07;60.06;101057.06;4489289;31;20168;-94
2022/10/28 01:37:36;;;;;;;35.00;16.20;;;;;;;16.17;60.06;101054.06;4492705;31;20129;-94
2022/10/28 01:40:22;;;;;;;31.62;16.40;;;;;;;16.24;60.07;101055.56;4467388;31;20142;-94
2022/10/28 01:42:55;;;;;;;37.28;17.77;;;;;;;16.24;60.07;101055.56;4464285;31;20488;-94
2022/10/28 01:45:24;;;;;;;37.97;18.15;;;;;;;16.18;60.07;101053.16;4488017;31;20872;-93
2022/10/28 01:47:57;;;;;;;34.38;17.02;;;;;;;16.05;60.05;101056.25;4476742;31;20106;-95
2022/10/28 01:50:26;;;;;;;37.47;17.80;;;;;;;16.02;60.06;101053.72;4473219;31;20745;-94
2022/10/28 01:52:52;;;;;;;40.47;19.73;;;;;;;15.91;60.05;101061.97;4466748;31;20084;-95
2022/10/28 01:55:20;;;;;;;39.10;17.45;;;;;;;15.89;60.05;101056.78;4467787;31;20110;-94
2022/10/28 01:57:46;;;;;;;38.38;16.83;;;;;;;15.83;60.04;101064.84;4463413;31;20415;-94
2022/10/28 02:00:12;;;;;;;36.53;18.42;;;;;;;15.97;60.05;101056.50;4463078;31;20112;-95
2022/10/28 02:02:38;;;;;;;39.25;18.25;;;;;;;16.06;60.06;101053.56;4474810;31;20112;-95
2022/10/28 02:05:35;;;;;;;30.83;17.02;;;;;;;15.84;60.04;101060.44;4473450;32;20133;-95
2022/10/28 02:08:23;;;;;;;39.50;17.37;;;;;;;15.94;60.06;101057.47;4498370;31;20088;-94
2022/10/28 02:10:57;;;;;;;30.58;16.10;;;;;;;16.05;60.06;101051.84;4480807;31;20169;-95
2022/10/28 02:13:24;;;;;;;35.60;17.23;;;;;;;16.05;60.06;101056.25;4482319;32;20830;-94
2022/10/28 02:15:58;;;;;;;30.08;16.42;;;;;;;16.06;60.05;101050.09;4485797;31;20100;-95
2022/10/28 02:18:47;;;;;;;31.67;16.95;;;;;;;16.11;60.06;101049.03;4465518;32;20073;-94
2022/10/28 02:21:19;;;;;;;36.95;16.50;;;;;;;16.20;60.07;101047.84;4481609;31;20084;-95
2022/10/28 02:23:58;;;;;;;40.60;18.87;;;;;;;16.03;60.05;101052.81;4475706;32;20126;-94
2022/10/28 02:26:28;;;;;;;37.92;18.30;;;;;;;15.87;60.05;101060.37;4461110;31;20111;-94
2022/10/28 02:28:55;;;;;;;38.75;16.65;;;;;;;16.00;60.05;101052.94;4459715;32;20167;-94
2022/10/28 02:31:27;;;;;;;38.40;17.05;;;;;;;16.13;60.06;101052.47;4483223;31;20104;-96
2022/10/28 02:33:54;;;;;;;36.58;17.08;;;;;;;16.14;60.06;101048.94;4476136;31;20069;-95
2022/10/28 02:36:20;;;;;;;33.42;17.10;;;;;;;15.99;60.05;101054.69;4485821;32;20684;-92
2022/10/28 02:38:51;;;;;;;36.00;17.05;;;;;;;16.05;60.06;101053.63;4470273;32;20159;-93
2022/10/28 02:41:42;;;;;;;35.65;18.00;;;;;;;16.10;60.06;101060.47;4460279;32;20100;-95
2022/10/28 02:44:10;;;;;;;42.50;17.92;;;;;;;16.08;60.05;101062.25;4462330;32;20105;-96
2022/10/28 02:46:35;;;;;;;41.53;18.83;;;;;;;16.05;60.06;101053.63;4470508;31;20877;-96
2022/10/28 02:49:03;;;;;;;39.30;18.33;;;;;;;15.91;60.05;101052.34;4464507;31;20096;-96
2022/10/28 02:51:30;;;;;;;42.58;18.83;;;;;;;16.01;60.06;101055.50;4463348;31;20975;-96
2022/10/28 02:54:03;;;;;;;38.60;18.48;;;;;;;16.01;60.07;101050.25;4463737;31;20108;-95
2022/10/28 02:56:29;;;;;;;42.47;19.08;;;;;;;16.03;60.05;101043.16;4462671;31;20499;-93
2022/10/28 02:58:55;;;;;;;37.22;18.45;;;;;;;15.83;60.05;101037.72;4462974;31;20068;-95
2022/10/28 03:01:20;;;;;;;40.83;17.33;;;;;;;15.80;60.05;101043.06;4466503;32;30944;-95
2022/10/28 03:03:46;;;;;;;37.00;19.00;;;;;;;15.63;60.04;101041.03;4464690;32;20193;-94
2022/10/28 03:06:11;;;;;;;42.53;19.77;;;;;;;15.67;60.04;101044.41;4473035;32;20089;-95
2022/10/28 03:08:36;;;;;;;41.20;20.20;;;;;;;15.72;60.04;101035.47;4475747;31;20156;-95
2022/10/28 03:11:02;;;;;;;38.50;18.30;;;;;;;15.53;60.03;101039.56;4461938;32;20426;-94
2022/10/28 03:13:27;;;;;;;39.65;18.75;;;;;;;15.45;60.02;101045.06;4460021;32;20089;-95
2022/10/28 03:15:53;;;;;;;40.40;18.00;;;;;;;15.64;60.04;101048.00;4471739;31;24537;-95
2022/10/28 03:18:18;;;;;;;43.92;19.42;;;;;;;15.86;60.04;101049.00;4475268;32;20171;-95
2022/10/28 03:20:44;;;;;;;39.88;18.87;;;;;;;15.78;60.04;101050.16;4472202;32;20136;-92
2022/10/28 03:23:39;;;;;;;45.42;20.17;;;;;;;15.84;60.04;101048.16;4471849;31;20127;-93
2022/10/28 03:26:04;;;;;;;41.67;19.50;;;;;;;15.43;60.03;101048.62;4478010;32;20084;-96
2022/10/28 03:28:30;;;;;;;44.83;20.55;;;;;;;15.28;60.01;101047.34;4470723;31;20152;-95
2022/10/28 03:30:55;;;;;;;43.92;18.85;;;;;;;15.22;60.01;101052.78;4459886;32;20160;-95
2022/10/28 03:33:20;;;;;;;42.22;19.42;;;;;;;15.48;60.03;101055.44;4476856;31;20104;-95
2022/10/28 03:35:46;;;;;;;43.92;20.33;;;;;;;15.41;60.03;101053.06;4467794;32;20409;-96
2022/10/28 03:38:11;;;;;;;41.92;19.62;;;;;;;15.42;60.03;101055.66;4468421;32;20136;-95
2022/10/28 03:40:36;;;;;;;50.88;22.58;;;;;;;15.44;60.02;101048.59;4476562;31;20178;-93
2022/10/28 03:43:02;;;;;;;46.53;20.30;;;;;;;15.34;60.02;101048.00;4477805;32;27799;-94
2022/10/28 03:45:27;;;;;;;45.25;20.60;;;;;;;15.50;60.03;101055.41;4460301;31;21647;-94
2022/10/28 03:47:53;;;;;;;47.85;20.37;;;;;;;15.61;60.03;101050.69;4467194;32;20112;-94
2022/10/28 03:50:18;;;;;;;45.47;20.92;;;;;;;15.62;60.03;101050.66;4470855;31;20199;-93
2022/10/28 03:52:43;;;;;;;48.92;21.05;;;;;;;15.32;60.01;101044.56;4463890;31;22418;-93
2022/10/28 03:55:09;;;;;;;47.33;21.92;;;;;;;15.30;60.02;101041.13;4474262;31;20138;-93
2022/10/28 03:57:34;;;;;;;48.05;20.92;;;;;;;15.34;60.02;101040.13;4459778;32;20115;-93
2022/10/28 04:00:00;;;;;;;49.47;20.33;;;;;;;15.37;60.02;101044.41;4464690;32;20155;-93
2022/10/28 04:02:25;;;;;;;45.65;20.98;;;;;;;15.39;60.02;101041.78;4470715;32;20120;-94
2022/10/28 04:04:51;;;;;;;52.62;22.17;;;;;;;15.40;60.03;101036.47;4467235;31;20108;-94
2022/10/28 04:07:16;;;;;;;52.85;21.37;;;;;;;15.59;60.03;101036.75;4487870;31;20061;-94
2022/10/28 04:09:42;;;;;;;47.00;21.05;;;;;;;15.62;60.03;101039.31;4480475;31;20123;-95
2022/10/28 04:12:08;;;;;;;47.47;22.00;;;;;;;15.47;60.02;101034.50;4476426;31;23041;-93
2022/10/28 04:14:34;;;;;;;44.80;20.95;;;;;;;15.38;60.02;101030.41;4474681;31;20080;-93
2022/10/28 04:16:59;;;;;;;54.58;22.33;;;;;;;15.54;60.02;101031.62;4476603;31;20453;-93
2022/10/28 04:19:24;;;;;;;57.38;22.65;;;;;;;15.50;60.03;101027.37;4478997;32;26809;-94
2022/10/28 04:21:50;;;;;;;48.92;21.65;;;;;;;15.47;60.03;101032.75;4471810;32;20143;-94
2022/10/28 04:24:15;;;;;;;49.40;21.48;;;;;;;15.41;60.03;101034.72;4466538;32;23779;-94
2022/10/28 04:26:40;;;;;;;53.00;22.50;;;;;;;15.48;60.03;101023.97;4473490;31;20131;-93
2022/10/28 04:29:06;;;;;;;46.37;19.17;;;;;;;15.46;60.02;101025.78;4476753;31;20100;-94
2022/10/28 04:31:34;;;;;;;47.10;21.12;;;;;;;15.36;60.02;101022.56;4465069;31;20100;-92
2022/10/28 04:33:59;;;;;;;48.70;21.65;;;;;;;15.53;60.02;101019.41;4466328;31;20144;-95
2022/10/28 04:36:58;;;;;;;56.50;24.15;;;;;;;15.54;60.02;101021.13;4476090;31;20375;-94
2022/10/28 04:39:23;;;;;;;53.70;22.92;;;;;;;15.68;60.04;101015.47;4499579;31;25190;-93
2022/10/28 04:41:49;;;;;;;52.97;22.27;;;;;;;15.57;60.04;101017.53;4470205;31;20130;-94
2022/10/28 04:44:15;;;;;;;61.72;23.15;;;;;;;15.60;60.03;101015.69;4479786;31;20092;-95
2022/10/28 04:46:50;;;;;;;48.15;20.73;;;;;;;15.59;60.03;101010.50;4481908;31;20424;-94
2022/10/28 04:49:15;;;;;;;60.08;21.50;;;;;;;15.49;60.03;101015.19;4487444;32;20100;-95
2022/10/28 04:51:41;;;;;;;54.28;21.23;;;;;;;15.43;60.03;101002.25;4460879;32;21285;-94
2022/10/28 04:54:06;;;;;;;45.95;19.08;;;;;;;15.46;60.02;101004.78;4472169;32;22506;-92
2022/10/28 04:56:34;;;;;;;45.28;19.70;;;;;;;15.55;60.02;101003.63;4476878;31;20096;-95
2022/10/28 04:59:00;;;;;;;44.35;19.98;;;;;;;15.54;60.02;101001.91;4472557;31;20064;-94
2022/10/28 05:01:25;;;;;;;37.05;18.30;;;;;;;15.47;60.03;101006.50;4469218;32;20146;-93
2022/10/28 05:03:53;;;;;;;45.72;18.00;;;;;;;15.67;60.03;101007.66;4484809;31;20493;-93
2022/10/28 05:06:19;;;;;;;49.65;21.10;;;;;;;15.67;60.03;101010.28;4492439;31;20106;-94
2022/10/28 05:08:44;;;;;;;48.90;20.48;;;;;;;15.54;60.03;101009.78;4473340;32;20743;-94
2022/10/28 05:11:09;;;;;;;52.53;21.95;;;;;;;15.49;60.03;101009.94;4471855;32;20120;-94
2022/10/28 05:13:35;;;;;;;49.08;21.55;;;;;;;15.52;60.02;101007.19;4472368;32;20119;-95
2022/10/28 05:16:00;;;;;;;51.17;20.48;;;;;;;15.63;60.02;101009.53;4470929;32;20111;-93
2022/10/28 05:18:26;;;;;;;48.72;20.67;;;;;;;15.46;60.02;101003.94;4461943;32;20486;-94
2022/10/28 05:20:53;;;;;;;54.30;20.25;;;;;;;15.40;60.02;101012.84;4469162;31;20116;-94
2022/10/28 05:23:22;;;;;;;51.70;21.33;;;;;;;15.51;60.03;101015.97;4466327;31;20831;-93
2022/10/28 05:25:51;;;;;;;44.55;20.58;;;;;;;15.49;60.03;101016.94;4461141;32;20146;-95
2022/10/28 05:28:17;;;;;;;53.67;19.62;;;;;;;15.56;60.04;101007.97;4476082;31;20134;-94
2022/10/28 05:30:43;;;;;;;46.37;20.62;;;;;;;15.57;60.03;101018.41;4460793;32;20437;-93
2022/10/28 05:33:09;;;;;;;43.83;17.98;;;;;;;15.32;60.01;101020.94;4471674;31;21127;-94
2022/10/28 05:35:35;;;;;;;50.95;19.35;;;;;;;15.53;60.03;101021.19;4476526;31;20500;-91
2022/10/28 05:38:01;;;;;;;48.05;19.48;;;;;;;15.59;60.03;101021.00;4476459;31;20160;-94
2022/10/28 05:40:26;;;;;;;50.45;19.75;;;;;;;15.75;60.04;101024.00;4459745;32;20124;-93
2022/10/28 05:42:52;;;;;;;42.47;18.62;;;;;;;15.68;60.04;101022.50;4460207;32;20135;-94
2022/10/28 05:45:17;;;;;;;42.42;17.70;;;;;;;15.69;60.03;101025.06;4468960;31;22118;-93
2022/10/28 05:47:46;;;;;;;43.28;18.30;;;;;;;15.64;60.03;101035.72;4463418;32;20169;-94
2022/10/28 05:50:12;;;;;;;44.15;16.98;;;;;;;15.60;60.03;101030.59;4469744;32;20126;-93
2022/10/28 05:52:38;;;;;;;47.35;17.50;;;;;;;15.50;60.03;101027.37;4490578;31;20060;-93
2022/10/28 05:55:04;;;;;;;37.42;15.98;;;;;;;15.63;60.04;101038.41;4481044;31;20374;-94
2022/10/28 05:57:32;;;;;;;43.75;17.55;;;;;;;15.62;60.03;101036.69;4462025;32;20380;-93
2022/10/28 05:59:58;;;;;;;47.88;17.20;;;;;;;15.54;60.03;101036.87;4473740;32;20101;-94
2022/10/28 06:02:23;;;;;;;37.53;16.62;;;;;;;15.45;60.02;101042.44;4474390;31;20081;-93
2022/10/28 06:04:48;;;;;;;37.92;16.08;;;;;;;15.53;60.03;101045.66;4468130;32;21657;-93
2022/10/28 06:07:14;;;;;;;43.08;16.65;;;;;;;15.69;60.03;101037.34;4475651;31;32875;-93
2022/10/28 06:09:39;;;;;;;37.40;16.00;;;;;;;15.54;60.02;101046.50;4487209;31;32152;-94
2022/10/28 06:12:05;;;;;;;40.90;15.45;;;;;;;15.79;60.05;101044.00;4462063;31;20123;-94
2022/10/28 06:14:31;;;;;;;41.10;16.15;;;;;;;15.73;60.04;101050.31;4475120;31;20427;-94
2022/10/28 06:16:56;;;;;;;38.05;13.85;;;;;;;15.52;60.02;101043.94;4483698;32;20127;-94
2022/10/28 06:19:21;;;;;;;39.75;14.82;;;;;;;15.54;60.02;101047.37;4474763;31;21220;-93
2022/10/28 06:21:47;;;;;;;42.38;15.00;;;;;;;15.68;60.04;101044.34;4485129;32;20649;-93
2022/10/28 06:24:12;;;;;;;36.83;14.82;;;;;;;15.64;60.04;101045.38;4471280;31;20152;-94
2022/10/28 06:26:38;;;;;;;40.80;14.02;;;;;;;15.69;60.03;101050.47;4471001;31;20381;-93
2022/10/28 06:29:03;;;;;;;40.25;15.13;;;;;;;15.52;60.02;101049.19;4465563;31;24209;-91
2022/10/28 06:31:28;;;;;;;41.33;14.38;;;;;;;15.49;60.03;101051.91;4471355;32;20410;-93
2022/10/28 06:33:54;;;;;;;36.30;13.80;;;;;;;15.59;60.03;101055.97;4474112;31;25348;-93
2022/10/28 06:36:19;;;;;;;40.40;13.90;;;;;;;15.60;60.03;101055.06;4474193;31;27164;-92
2022/10/28 06:38:45;;;;;;;33.72;13.82;;;;;;;15.70;60.03;101054.81;4460550;32;21687;-93
2022/10/28 06:41:10;;;;;;;31.12;13.25;;;;;;;15.77;60.04;101051.91;4471634;32;20103;-93
2022/10/28 06:43:35;;;;;;;40.03;13.02;;;;;;;15.84;60.04;101055.19;4472080;31;20103;-94
2022/10/28 06:46:02;;;;;;;34.67;13.02;;;;;;;15.76;60.04;101059.84;4483955;32;20132;-94
2022/10/28 06:48:27;;;;;;;32.05;12.10;;;;;;;15.74;60.04;101054.66;4469260;31;20099;-93
2022/10/28 06:50:56;;;;;;;32.05;12.25;;;;;;;15.80;60.04;101056.22;4473506;31;20173;-93
2022/10/28 06:53:22;;;;;;;25.83;11.17;;;;;;;15.79;60.05;101060.59;4474440;31;20134;-94
2022/10/28 06:55:52;;;;;;;30.25;11.38;;;;;;;15.96;60.05;101067.94;4486691;31;20104;-94
2022/10/28 06:58:18;;;;;;;27.75;11.57;;;;;;;15.80;60.05;101070.19;4464767;32;20116;-94
2022/10/28 07:00:43;;;;;;;32.17;12.35;;;;;;;15.92;60.04;101068.94;4469551;31;20132;-94
2022/10/28 07:03:08;;;;;;;31.55;11.45;;;;;;;15.93;60.04;101079.41;4472355;32;20951;-94
2022/10/28 07:05:34;;;;;;;26.98;11.95;;;;;;;15.85;60.04;101078.81;4467440;31;24257;-94
2022/10/28 07:07:59;;;;;;;27.40;11.60;;;;;;;15.99;60.05;101075.69;4473681;31;20096;-93
2022/10/28 07:10:25;;;;;;;26.37;11.93;;;;;;;15.89;60.05;101077.78;4473321;31;22475;-93
2022/10/28 07:12:51;;;;;;;32.65;11.90;;;;;;;15.93;60.04;101081.16;4473563;31;20128;-94
2022/10/28 07:15:16;;;;;;;36.22;12.13;;;;;;;15.94;60.06;101075.00;4465550;32;20101;-93
2022/10/28 07:17:42;;;;;;;29.48;11.35;;;;;;;16.10;60.06;101078.84;4470854;32;20173;-93
2022/10/28 07:20:08;;;;;;;21.85;10.73;;;;;;;16.00;60.05;101077.41;4469852;32;20112;-93
2022/10/28 07:22:33;;;;;;;32.13;10.98;;;;;;;16.15;60.05;101071.66;4480872;31;20449;-94
2022/10/28 07:24:59;;;;;;;25.88;9.98;;;;;;;16.12;60.06;101066.53;4459770;31;20176;-94
2022/10/28 07:27:24;;;;;;;31.48;11.25;;;;;;;16.07;60.06;101075.44;4470868;32;20442;-94
2022/10/28 07:29:49;;;;;;;25.33;10.02;;;;;;;16.30;60.07;101069.41;4482544;31;20485;-94
2022/10/28 07:32:15;;;;;;;27.83;10.60;;;;;;;16.18;60.06;101066.31;4497344;31;20138;-94
2022/10/28 07:34:40;;;;;;;23.70;10.95;;;;;;;16.43;60.07;101068.06;4464905;32;20128;-94
2022/10/28 07:37:06;;;;;;;26.75;11.25;;;;;;;16.51;60.08;101068.66;4480069;32;20108;-94
2022/10/28 07:39:31;;;;;;;26.83;10.88;;;;;;;16.49;60.08;101071.34;4467038;32;20112;-94
2022/10/28 07:41:56;;;;;;;27.05;12.32;;;;;;;16.44;60.07;101077.69;4470102;31;20185;-94
2022/10/28 07:44:22;;;;;;;26.83;11.57;;;;;;;16.58;60.09;101075.44;4471819;32;20136;-94
2022/10/28 07:46:47;;;;;;;27.50;11.10;;;;;;;16.53;60.08;101082.59;4468278;32;20243;-94
2022/10/28 07:49:13;;;;;;;35.63;12.82;;;;;;;16.32;60.08;101081.56;4477008;31;20111;-93
2022/10/28 07:51:39;;;;;;;29.23;12.43;;;;;;;16.46;60.07;101092.47;4497795;31;20100;-94
2022/10/28 07:54:05;;;;;;;21.15;10.63;;;;;;;16.46;60.08;101087.22;4478359;31;20763;-93
2022/10/28 07:56:30;;;;;;;23.27;10.68;;;;;;;16.61;60.08;101083.19;4475220;31;20104;-94
2022/10/28 07:58:55;;;;;;;26.80;11.52;;;;;;;16.53;60.08;101087.84;4475348;31;20155;-93
2022/10/28 08:01:21;;;;;;;27.37;11.30;;;;;;;16.49;60.08;101089.75;4471826;31;20107;-95
2022/10/28 08:03:46;;;;;;;27.42;11.20;;;;;;;16.58;60.08;101086.81;4468245;32;20144;-95
2022/10/28 08:06:16;;;;;;;33.25;11.55;;;;;;;16.70;60.08;101079.41;4474853;32;20163;-94
2022/10/28 08:08:42;;;;;;;25.88;10.95;;;;;;;16.75;60.09;101074.84;4489167;31;20122;-94
2022/10/28 08:11:11;;;;;;;30.30;11.93;;;;;;;16.55;60.08;101078.13;4472776;31;20120;-94
2022/10/28 08:13:36;;;;;;;30.80;11.60;;;;;;;16.48;60.08;101076.66;4467600;32;20159;-94
2022/10/28 08:16:02;;;;;;;26.98;11.60;;;;;;;16.51;60.08;101073.91;4460088;32;20410;-94
2022/10/28 08:18:27;;;;;;;28.00;12.48;;;;;;;16.57;60.08;101060.56;4474588;31;20088;-94
2022/10/28 08:20:53;;;;;;;20.15;9.55;;;;;;;16.62;60.08;101048.13;4472939;32;20131;-94
2022/10/28 08:23:18;;;;;;;27.70;10.45;;;;;;;16.77;60.09;101051.97;4472933;31;20229;-94
2022/10/28 08:25:50;;;;;;;23.80;10.80;;;;;;;16.56;60.09;101056.19;4471059;31;20162;-95
2022/10/28 08:28:15;;;;;;;24.40;9.88;;;;;;;16.57;60.08;101057.94;4462869;31;20064;-95
2022/10/28 08:30:41;;;;;;;18.35;8.88;;;;;;;16.61;60.08;101054.28;4459852;32;20493;-95
2022/10/28 08:33:06;;;;;;;20.90;9.27;;;;;;;16.62;60.08;101050.75;4467881;32;20132;-94
2022/10/28 08:35:34;;;;;;;17.62;8.93;;;;;;;16.67;60.09;101059.34;4474695;31;20433;-94
2022/10/28 08:37:59;;;;;;;26.55;10.00;;;;;;;16.63;60.09;101062.97;4472851;32;20122;-94
2022/10/28 08:40:31;;;;;;;18.80;8.75;;;;;;;16.59;60.09;101074.53;4473553;31;20107;-95
2022/10/28 08:42:59;;;;;;;19.05;8.88;;;;;;;16.56;60.08;101079.84;4473130;32;20163;-95
2022/10/28 08:46:01;;;;;;;23.30;9.90;;;;;;;16.60;60.08;101073.59;4472420;31;20136;-95
2022/10/28 08:48:30;;;;;;;19.62;9.13;;;;;;;16.50;60.08;101077.44;4477486;31;20498;-94
2022/10/28 08:51:00;;;;;;;21.40;9.85;;;;;;;16.67;60.09;101080.38;4478655;31;20083;-94
2022/10/28 08:53:35;;;;;;;19.35;9.00;;;;;;;16.64;60.09;101080.47;4478639;31;20115;-94
2022/10/28 08:56:08;;;;;;;21.20;9.15;;;;;;;16.80;60.10;101076.41;4472686;32;20104;-94
2022/10/28 08:58:34;;;;;;;16.10;8.38;;;;;;;16.86;60.10;101077.94;4470180;31;20134;-94
2022/10/28 09:00:59;;;;;;;20.73;9.52;;;;;;;16.90;60.10;101079.53;4474055;31;20143;-96
2022/10/28 09:03:25;;;;;;;19.55;9.00;;;;;;;16.94;60.10;101086.41;4467720;31;20121;-94
2022/10/28 09:06:00;;;;;;;17.65;8.27;;;;;;;16.81;60.09;101091.28;4475377;31;20108;-95
2022/10/28 09:08:27;;;;;;;19.02;8.25;;;;;;;16.79;60.10;101084.31;4472956;32;20092;-95
2022/10/28 09:11:09;;;;;;;16.37;7.25;;;;;;;16.71;60.09;101095.13;4461740;31;20143;-95
2022/10/28 09:13:56;;;;;;;21.95;9.23;;;;;;;16.61;60.08;101091.09;4486698;31;20109;-95
2022/10/28 09:16:28;;;;;;;20.33;9.07;;;;;;;16.56;60.08;101087.75;4501263;31;20069;-95
2022/10/28 09:18:55;;;;;;;17.70;7.82;;;;;;;16.73;60.09;101090.66;4487098;32;20115;-95
2022/10/28 09:21:29;;;;;;;20.73;8.85;;;;;;;16.53;60.08;101087.84;4472314;31;20660;-95
2022/10/28 09:23:56;;;;;;;19.45;8.90;;;;;;;16.75;60.09;101090.63;4510245;31;20068;-94
2022/10/28 09:26:59;;;;;;;21.62;9.70;;;;;;;16.81;60.10;101077.25;4475787;31;20077;-94
2022/10/28 09:29:37;;;;;;;22.55;10.05;;;;;;;17.03;60.11;101079.94;4494522;31;20486;-96
2022/10/28 09:32:14;;;;;;;19.85;9.43;;;;;;;17.07;60.10;101078.94;4490256;31;20087;-94
2022/10/28 09:35:05;;;;;;;24.45;9.55;;;;;;;16.96;60.11;101094.22;4501149;31;20134;-95
2022/10/28 09:37:34;;;;;;;18.55;9.02;;;;;;;17.15;60.11;101090.00;4490362;31;20112;-95
2022/10/28 09:40:04;;;;;;;16.98;9.25;;;;;;;17.06;60.10;101082.47;4472766;31;20224;-94
2022/10/28 09:42:34;;;;;;;19.15;8.73;;;;;;;16.98;60.10;101088.00;4464990;31;20139;-95
2022/10/28 09:45:04;;;;;;;22.10;8.68;;;;;;;17.04;60.11;101082.53;4475393;31;20112;-95
2022/10/28 09:47:39;;;;;;;27.37;13.27;;;;;;;17.02;60.11;101067.69;4472455;32;20124;-94
2022/10/28 09:50:11;;;;;;;21.58;9.90;;;;;;;17.27;60.12;101071.13;4472338;32;20144;-95
2022/10/28 09:52:40;;;;;;;24.23;11.43;;;;;;;17.34;60.12;101074.37;4485564;32;20096;-95
2022/10/28 09:55:08;;;;;;;25.73;11.95;;;;;;;16.88;60.10;101087.50;4466825;32;20115;-95
2022/10/28 09:57:33;;;;;;;23.25;10.40;;;;;;;16.82;60.10;101078.97;4474009;31;20116;-95
2022/10/28 09:59:59;;;;;;;23.10;11.73;;;;;;;16.96;60.11;101084.56;4475179;31;20585;-94
2022/10/28 10:02:29;;;;;;;21.23;9.32;;;;;;;17.01;60.11;101087.03;4471868;31;20342;-94
2022/10/28 10:04:58;;;;;;;21.60;10.40;;;;;;;17.03;60.11;101085.19;4466510;31;20842;-95
2022/10/28 10:07:34;;;;;;;19.77;9.10;;;;;;;17.27;60.12;101080.78;4471297;31;20100;-95
2022/10/28 10:10:02;;;;;;;17.20;9.73;;;;;;;17.30;60.12;101080.69;4467250;31;20175;-95
2022/10/28 10:12:28;;;;;;;22.20;10.05;;;;;;;17.27;60.12;101073.75;4473774;31;20096;-95
2022/10/28 10:14:55;;;;;;;23.80;11.07;;;;;;;17.30;60.12;101068.38;4471321;31;26422;-94
2022/10/28 10:17:41;;;;;;;22.65;10.27;;;;;;;17.12;60.11;101077.84;4467557;32;20464;-96
2022/10/28 10:20:09;;;;;;;17.60;9.18;;;;;;;17.18;60.11;101085.47;4477191;31;20104;-95
2022/10/28 10:22:37;;;;;;;18.73;10.18;;;;;;;17.30;60.12;101086.81;4472485;32;20115;-94
2022/10/28 10:25:18;;;;;;;19.17;9.55;;;;;;;16.94;60.10;101085.53;4488045;31;20100;-96
2022/10/28 10:27:59;;;;;;;22.67;10.20;;;;;;;16.93;60.09;101086.47;4486785;31;20120;-95
2022/10/28 10:30:39;;;;;;;17.90;9.73;;;;;;;16.86;60.10;101091.09;4500373;31;20088;-94
2022/10/28 10:33:05;;;;;;;20.50;10.20;;;;;;;17.07;60.11;101084.19;4475894;31;20120;-94
2022/10/28 10:35:32;;;;;;;21.27;10.35;;;;;;;16.91;60.10;101083.88;4489333;31;22342;-95
2022/10/28 10:38:01;;;;;;;20.02;10.23;;;;;;;17.02;60.11;101072.97;4472536;32;20484;-94
2022/10/28 10:40:34;;;;;;;19.70;10.27;;;;;;;17.03;60.11;101072.91;4479987;31;20060;-94
2022/10/28 10:43:20;;;;;;;20.73;10.85;;;;;;;17.16;60.12;101070.69;4478481;32;20127;-94
2022/10/28 10:46:11;;;;;;;21.70;10.35;;;;;;;17.32;60.12;101071.81;4484733;31;20124;-95
2022/10/28 10:48:37;;;;;;;19.67;10.32;;;;;;;16.97;60.10;101069.66;4487232;31;20776;-94
2022/10/28 10:51:06;;;;;;;22.23;10.85;;;;;;;16.72;60.09;101073.19;4463930;31;24145;-94
2022/10/28 10:53:32;;;;;;;17.95;9.32;;;;;;;16.77;60.09;101068.59;4477048;32;20366;-95
2022/10/28 10:56:07;;;;;;;25.05;9.75;;;;;;;16.97;60.10;101067.87;4487294;31;20103;-94
2022/10/28 10:59:02;;;;;;;18.92;9.70;;;;;;;16.93;60.11;101074.16;4472273;31;20397;-94
2022/10/28 11:01:34;;;;;;;20.92;9.98;;;;;;;16.98;60.11;101066.97;4485310;31;20436;-95
2022/10/28 11:04:06;;;;;;;20.35;10.15;;;;;;;17.00;60.10;101069.53;4471866;31;20080;-94
2022/10/28 11:06:35;;;;;;;17.75;9.65;;;;;;;17.16;60.12;101065.41;4466145;31;20152;-95
2022/10/28 11:09:02;;;;;;;21.58;10.60;;;;;;;17.05;60.11;101060.56;4481402;31;20096;-95
2022/10/28 11:11:34;;;;;;;25.70;10.02;;;;;;;17.08;60.12;101059.59;4479889;32;20088;-95
2022/10/28 11:14:08;;;;;;;18.92;9.88;;;;;;;17.25;60.12;101059.78;4496944;31;20080;-95
2022/10/28 11:16:45;;;;;;;20.52;10.48;;;;;;;16.77;60.09;101063.34;4476468;31;20097;-94
2022/10/28 11:19:21;;;;;;;18.90;9.63;;;;;;;16.98;60.11;101063.47;4466561;32;20113;-94
2022/10/28 11:22:24;;;;;;;14.20;8.10;;;;;;;17.16;60.12;101062.78;4465296;31;20575;-94